sensor_id;sensor_type;location;lat;lon;timestamp;pressure;altitude;pressure_sealevel;temperature;humidity
38718;BME280;24468;52.128;9.278;2024-01-15T00:02:16;98942.63;;;1.88;100.00
38718;BME280;24468;52.128;9.278;2024-01-15T00:04:42;98953.53;;;1.80;100.00
38718;BME280;24468;52.128;9.278;2024-01-15T00:07:08;98936.78;;;2.03;100.00
38718;BME280;24468;52.128;9.278;2024-01-15T00:09:34;98923.78;;;1.94;100.00
38718;BME280;24468;52.128;9.278;2024-01-15T00:12:00;98926.41;;;1.95;100.00
38718;BME280;24468;52.128;9.278;2024-01-15T00:14:27;98922.38;;;2.34;100.00
38718;BME280;24468;52.128;9.278;2024-01-15T00:16:52;98917.44;;;1.98;100.00
38718;BME280;24468;52.128;9.278;2024-01-15T00:19:23;98960.16;;;2.18;100.00
38718;BME280;24468;52.128;9.278;2024-01-15T00:21:49;98924.97;;;2.10;100.00
38718;BME280;24468;52.128;9.278;2024-01-15T00:24:15;98930.94;;;1.92;100.00
38718;BME280;24468;52.128;9.278;2024-01-15T00:26:41;98928.94;;;2.23;100.00
38718;BME280;24468;52.128;9.278;2024-01-15T00:29:07;98919.94;;;2.28;100.00
38718;BME280;24468;52.128;9.278;2024-01-15T00:31:33;98929.06;;;2.20;100.00
38718;BME280;24468;52.128;9.278;2024-01-15T00:33:59;98881.16;;;2.20;100.00
38718;BME280;24468;52.128;9.278;2024-01-15T00:36:25;98932.31;;;2.29;100.00
38718;BME280;24468;52.128;9.278;2024-01-15T00:38:50;98924.59;;;2.21;100.00
38718;BME280;24468;52.128;9.278;2024-01-15T00:41:16;98917.28;;;2.28;100.00
38718;BME280;24468;52.128;9.278;2024-01-15T00:43:42;98932.31;;;2.29;100.00
38718;BME280;24468;52.128;9.278;2024-01-15T00:46:08;98888.81;;;2.05;100.00
38718;BME280;24468;52.128;9.278;2024-01-15T00:48:33;98910.19;;;2.03;100.00
38718;BME280;24468;52.128;9.278;2024-01-15T00:50:59;98905.81;;;2.26;100.00
38718;BME280;24468;52.128;9.278;2024-01-15T00:53:25;98910.84;;;2.08;100.00
38718;BME280;24468;52.128;9.278;2024-01-15T00:55:51;98907.38;;;2.31;100.00
38718;BME280;24468;52.128;9.278;2024-01-15T00:58:16;98922.59;;;2.28;100.00
38718;BME280;24468;52.128;9.278;2024-01-15T01:00:42;98900.13;;;2.35;100.00
38718;BME280;24468;52.128;9.278;2024-01-15T01:03:08;98892.50;;;2.26;100.00
38718;BME280;24468;52.128;9.278;2024-01-15T01:05:34;98905.75;;;2.51;100.00
38718;BME280;24468;52.128;9.278;2024-01-15T01:08:00;98911.41;;;2.18;100.00
38718;BME280;24468;52.128;9.278;2024-01-15T01:10:26;98907.94;;;2.63;100.00
38718;BME280;24468;52.128;9.278;2024-01-15T01:12:52;98912.47;;;2.61;100.00
38718;BME280;24468;52.128;9.278;2024-01-15T01:15:17;98882.84;;;2.23;100.00
38718;BME280;24468;52.128;9.278;2024-01-15T01:17:43;98885.03;;;2.35;100.00
38718;BME280;24468;52.128;9.278;2024-01-15T01:20:09;98881.91;;;2.00;100.00
38718;BME280;24468;52.128;9.278;2024-01-15T01:22:35;98909.72;;;2.15;100.00
38718;BME280;24468;52.128;9.278;2024-01-15T01:25:01;98892.75;;;2.19;100.00
38718;BME280;24468;52.128;9.278;2024-01-15T01:27:26;98873.72;;;2.05;100.00
38718;BME280;24468;52.128;9.278;2024-01-15T01:29:52;98884.00;;;1.91;100.00
38718;BME280;24468;52.128;9.278;2024-01-15T01:32:18;98899.47;;;2.05;100.00
38718;BME280;24468;52.128;9.278;2024-01-15T01:34:44;98903.09;;;2.02;100.00
38718;BME280;24468;52.128;9.278;2024-01-15T01:37:10;98885.31;;;2.04;100.00
38718;BME280;24468;52.128;9.278;2024-01-15T01:39:38;98881.97;;;1.97;100.00
38718;BME280;24468;52.128;9.278;2024-01-15T01:42:05;98880.38;;;1.93;100.00
38718;BME280;24468;52.128;9.278;2024-01-15T01:44:30;98889.56;;;2.08;100.00
38718;BME280;24468;52.128;9.278;2024-01-15T01:46:57;98877.56;;;2.21;100.00
38718;BME280;24468;52.128;9.278;2024-01-15T01:49:25;98874.00;;;2.22;100.00
38718;BME280;24468;52.128;9.278;2024-01-15T01:51:51;98853.03;;;2.13;100.00
38718;BME280;24468;52.128;9.278;2024-01-15T01:54:19;98866.41;;;2.35;100.00
38718;BME280;24468;52.128;9.278;2024-01-15T01:56:47;98872.53;;;2.37;100.00
38718;BME280;24468;52.128;9.278;2024-01-15T01:59:14;98875.19;;;2.37;100.00
38718;BME280;24468;52.128;9.278;2024-01-15T02:01:40;98862.25;;;2.28;100.00
38718;BME280;24468;52.128;9.278;2024-01-15T02:04:07;98876.53;;;2.49;100.00
38718;BME280;24468;52.128;9.278;2024-01-15T02:06:33;98855.38;;;2.22;100.00
38718;BME280;24468;52.128;9.278;2024-01-15T02:08:59;98857.09;;;2.23;100.00
38718;BME280;24468;52.128;9.278;2024-01-15T02:11:25;98846.66;;;2.41;100.00
38718;BME280;24468;52.128;9.278;2024-01-15T02:13:51;98849.66;;;2.33;100.00
38718;BME280;24468;52.128;9.278;2024-01-15T02:16:16;98870.28;;;2.03;100.00
38718;BME280;24468;52.128;9.278;2024-01-15T02:18:44;98857.69;;;2.32;100.00
38718;BME280;24468;52.128;9.278;2024-01-15T02:21:10;98867.72;;;2.00;100.00
38718;BME280;24468;52.128;9.278;2024-01-15T02:23:36;98857.09;;;2.23;100.00
38718;BME280;24468;52.128;9.278;2024-01-15T02:26:03;98847.25;;;2.02;100.00
38718;BME280;24468;52.128;9.278;2024-01-15T02:28:29;98847.13;;;2.05;100.00
38718;BME280;24468;52.128;9.278;2024-01-15T02:30:55;98856.41;;;2.18;100.00
38718;BME280;24468;52.128;9.278;2024-01-15T02:33:21;98855.94;;;2.31;100.00
38718;BME280;24468;52.128;9.278;2024-01-15T02:35:46;98863.88;;;2.32;100.00
38718;BME280;24468;52.128;9.278;2024-01-15T02:38:15;98858.50;;;2.34;100.00
38718;BME280;24468;52.128;9.278;2024-01-15T02:40:42;98859.22;;;2.14;100.00
38718;BME280;24468;52.128;9.278;2024-01-15T02:43:08;98858.88;;;2.47;100.00
38718;BME280;24468;52.128;9.278;2024-01-15T02:45:34;98856.91;;;2.52;100.00
38718;BME280;24468;52.128;9.278;2024-01-15T02:47:59;98855.25;;;2.26;100.00
38718;BME280;24468;52.128;9.278;2024-01-15T02:50:25;98839.53;;;1.94;100.00
38718;BME280;24468;52.128;9.278;2024-01-15T02:52:51;98878.84;;;2.11;100.00
38718;BME280;24468;52.128;9.278;2024-01-15T02:55:17;98834.53;;;2.10;100.00
38718;BME280;24468;52.128;9.278;2024-01-15T02:57:42;98853.31;;;2.06;100.00
38718;BME280;24468;52.128;9.278;2024-01-15T03:00:08;98864.13;;;2.25;100.00
38718;BME280;24468;52.128;9.278;2024-01-15T03:02:37;98816.16;;;2.28;100.00
38718;BME280;24468;52.128;9.278;2024-01-15T03:05:06;98854.59;;;2.19;100.00
38718;BME280;24468;52.128;9.278;2024-01-15T03:07:33;98861.41;;;2.28;100.00
38718;BME280;24468;52.128;9.278;2024-01-15T03:09:58;98852.59;;;2.26;100.00
38718;BME280;24468;52.128;9.278;2024-01-15T03:12:24;98818.94;;;2.01;100.00
38718;BME280;24468;52.128;9.278;2024-01-15T03:14:49;98845.28;;;2.07;100.00
38718;BME280;24468;52.128;9.278;2024-01-15T03:17:15;98851.66;;;2.03;100.00
38718;BME280;24468;52.128;9.278;2024-01-15T03:19:40;98845.06;;;2.13;100.00
38718;BME280;24468;52.128;9.278;2024-01-15T03:22:06;98839.41;;;2.22;100.00
38718;BME280;24468;52.128;9.278;2024-01-15T03:24:33;98837.63;;;2.23;100.00
38718;BME280;24468;52.128;9.278;2024-01-15T03:26:59;98842.97;;;2.21;100.00
38718;BME280;24468;52.128;9.278;2024-01-15T03:29:26;98851.16;;;2.17;100.00
38718;BME280;24468;52.128;9.278;2024-01-15T03:31:52;98841.31;;;1.95;100.00
38718;BME280;24468;52.128;9.278;2024-01-15T03:34:17;98834.81;;;2.03;100.00
38718;BME280;24468;52.128;9.278;2024-01-15T03:36:43;98823.53;;;1.96;100.00
38718;BME280;24468;52.128;9.278;2024-01-15T03:39:08;98845.25;;;2.09;100.00
38718;BME280;24468;52.128;9.278;2024-01-15T03:41:34;98835.72;;;2.03;100.00
38718;BME280;24468;52.128;9.278;2024-01-15T03:43:59;98839.28;;;2.26;100.00
38718;BME280;24468;52.128;9.278;2024-01-15T03:46:25;98839.53;;;2.19;100.00
38718;BME280;24468;52.128;9.278;2024-01-15T03:48:50;98820.50;;;2.07;100.00
38718;BME280;24468;52.128;9.278;2024-01-15T03:51:17;98839.34;;;2.24;100.00
38718;BME280;24468;52.128;9.278;2024-01-15T03:53:43;98837.78;;;2.18;100.00
38718;BME280;24468;52.128;9.278;2024-01-15T03:56:08;98843.44;;;2.33;100.00
38718;BME280;24468;52.128;9.278;2024-01-15T03:58:34;98858.94;;;2.21;100.00
38718;BME280;24468;52.128;9.278;2024-01-15T04:01:00;98841.25;;;2.20;100.00
38718;BME280;24468;52.128;9.278;2024-01-15T04:03:25;98856.97;;;2.27;100.00
38718;BME280;24468;52.128;9.278;2024-01-15T04:05:51;98851.50;;;2.31;100.00
38718;BME280;24468;52.128;9.278;2024-01-15T04:08:16;98840.91;;;2.06;100.00
38718;BME280;24468;52.128;9.278;2024-01-15T04:10:42;98852.34;;;2.08;100.00
38718;BME280;24468;52.128;9.278;2024-01-15T04:13:07;98868.13;;;2.13;100.00
38718;BME280;24468;52.128;9.278;2024-01-15T04:15:33;98868.88;;;2.16;100.00
38718;BME280;24468;52.128;9.278;2024-01-15T04:17:58;98887.31;;;2.22;100.00
38718;BME280;24468;52.128;9.278;2024-01-15T04:20:24;98847.41;;;2.22;100.00
38718;BME280;24468;52.128;9.278;2024-01-15T04:22:50;98843.25;;;2.14;100.00
38718;BME280;24468;52.128;9.278;2024-01-15T04:25:15;98853.56;;;2.47;100.00
38718;BME280;24468;52.128;9.278;2024-01-15T04:27:41;98854.69;;;2.17;100.00
38718;BME280;24468;52.128;9.278;2024-01-15T04:30:07;98858.81;;;2.25;100.00
38718;BME280;24468;52.128;9.278;2024-01-15T04:32:32;98849.66;;;2.33;100.00
38718;BME280;24468;52.128;9.278;2024-01-15T04:34:58;98846.34;;;2.27;100.00
38718;BME280;24468;52.128;9.278;2024-01-15T04:37:23;98842.06;;;2.22;100.00
38718;BME280;24468;52.128;9.278;2024-01-15T04:39:49;98838.47;;;2.23;100.00
38718;BME280;24468;52.128;9.278;2024-01-15T04:42:18;98836.84;;;2.43;100.00
38718;BME280;24468;52.128;9.278;2024-01-15T04:44:43;98842.94;;;2.23;100.00
38718;BME280;24468;52.128;9.278;2024-01-15T04:47:09;98844.19;;;2.13;100.00
38718;BME280;24468;52.128;9.278;2024-01-15T04:49:34;98838.53;;;2.45;100.00
38718;BME280;24468;52.128;9.278;2024-01-15T04:52:00;98841.00;;;2.27;100.00
38718;BME280;24468;52.128;9.278;2024-01-15T04:54:25;98849.31;;;2.64;100.00
38718;BME280;24468;52.128;9.278;2024-01-15T04:56:51;98833.38;;;2.41;100.00
38718;BME280;24468;52.128;9.278;2024-01-15T04:59:16;98839.25;;;2.49;100.00
38718;BME280;24468;52.128;9.278;2024-01-15T05:01:42;98829.03;;;2.38;100.00
38718;BME280;24468;52.128;9.278;2024-01-15T05:04:07;98838.59;;;2.20;100.00
38718;BME280;24468;52.128;9.278;2024-01-15T05:06:33;98827.94;;;2.66;100.00
38718;BME280;24468;52.128;9.278;2024-01-15T05:08:58;98826.84;;;2.26;100.00
38718;BME280;24468;52.128;9.278;2024-01-15T05:11:24;98831.50;;;2.43;100.00
38718;BME280;24468;52.128;9.278;2024-01-15T05:13:50;98843.56;;;2.53;100.00
38718;BME280;24468;52.128;9.278;2024-01-15T05:16:15;98832.06;;;2.29;100.00
38718;BME280;24468;52.128;9.278;2024-01-15T05:18:41;98830.38;;;2.50;100.00
38718;BME280;24468;52.128;9.278;2024-01-15T05:21:06;98823.81;;;2.35;100.00
38718;BME280;24468;52.128;9.278;2024-01-15T05:23:32;98825.94;;;2.49;100.00
38718;BME280;24468;52.128;9.278;2024-01-15T05:25:58;98826.88;;;2.48;100.00
38718;BME280;24468;52.128;9.278;2024-01-15T05:28:23;98822.38;;;2.27;100.00
38718;BME280;24468;52.128;9.278;2024-01-15T05:30:49;98819.28;;;2.39;100.00
38718;BME280;24468;52.128;9.278;2024-01-15T05:33:16;98816.53;;;2.40;100.00
38718;BME280;24468;52.128;9.278;2024-01-15T05:35:42;98816.41;;;2.43;100.00
38718;BME280;24468;52.128;9.278;2024-01-15T05:38:07;98817.78;;;2.54;100.00
38718;BME280;24468;52.128;9.278;2024-01-15T05:40:33;98825.16;;;2.47;100.00
38718;BME280;24468;52.128;9.278;2024-01-15T05:42:59;98814.03;;;2.36;100.00
38718;BME280;24468;52.128;9.278;2024-01-15T05:45:26;98809.53;;;2.38;100.00
38718;BME280;24468;52.128;9.278;2024-01-15T05:47:52;98811.22;;;2.62;100.00
38718;BME280;24468;52.128;9.278;2024-01-15T05:50:17;98829.91;;;2.15;100.00
38718;BME280;24468;52.128;9.278;2024-01-15T05:52:43;98819.47;;;2.33;100.00
38718;BME280;24468;52.128;9.278;2024-01-15T05:55:09;98831.81;;;2.35;100.00
38718;BME280;24468;52.128;9.278;2024-01-15T05:57:35;98775.19;;;2.08;100.00
38718;BME280;24468;52.128;9.278;2024-01-15T06:00:00;98817.28;;;2.44;100.00
38718;BME280;24468;52.128;9.278;2024-01-15T06:02:26;98815.47;;;2.22;100.00
38718;BME280;24468;52.128;9.278;2024-01-15T06:04:51;98817.19;;;2.47;100.00
38718;BME280;24468;52.128;9.278;2024-01-15T06:07:17;98800.53;;;2.18;100.00
38718;BME280;24468;52.128;9.278;2024-01-15T06:09:42;98816.50;;;2.42;100.00
38718;BME280;24468;52.128;9.278;2024-01-15T06:12:08;98810.03;;;2.26;100.00
38718;BME280;24468;52.128;9.278;2024-01-15T06:14:34;98800.06;;;2.31;100.00
38718;BME280;24468;52.128;9.278;2024-01-15T06:16:59;98785.94;;;2.05;100.00
38718;BME280;24468;52.128;9.278;2024-01-15T06:19:25;98798.97;;;2.13;100.00
38718;BME280;24468;52.128;9.278;2024-01-15T06:21:50;98801.28;;;1.98;100.00
38718;BME280;24468;52.128;9.278;2024-01-15T06:24:16;98809.16;;;2.25;100.00
38718;BME280;24468;52.128;9.278;2024-01-15T06:26:43;98815.09;;;2.08;100.00
38718;BME280;24468;52.128;9.278;2024-01-15T06:29:09;98812.84;;;2.21;100.00
38718;BME280;24468;52.128;9.278;2024-01-15T06:31:34;98809.88;;;2.05;100.00
38718;BME280;24468;52.128;9.278;2024-01-15T06:34:00;98808.19;;;2.28;100.00
38718;BME280;24468;52.128;9.278;2024-01-15T06:36:25;98821.94;;;2.39;100.00
38718;BME280;24468;52.128;9.278;2024-01-15T06:38:51;98804.69;;;2.02;100.00
38718;BME280;24468;52.128;9.278;2024-01-15T06:41:16;98826.38;;;2.15;100.00
38718;BME280;24468;52.128;9.278;2024-01-15T06:43:41;98821.22;;;2.10;100.00
38718;BME280;24468;52.128;9.278;2024-01-15T06:46:07;98836.59;;;2.02;100.00
38718;BME280;24468;52.128;9.278;2024-01-15T06:48:32;98831.22;;;1.80;100.00
38718;BME280;24468;52.128;9.278;2024-01-15T06:50:58;98841.03;;;2.03;100.00
38718;BME280;24468;52.128;9.278;2024-01-15T06:53:23;98840.44;;;2.18;100.00
38718;BME280;24468;52.128;9.278;2024-01-15T06:55:49;98838.94;;;2.11;100.00
38718;BME280;24468;52.128;9.278;2024-01-15T06:58:16;98844.84;;;2.19;100.00
38718;BME280;24468;52.128;9.278;2024-01-15T07:00:42;98834.59;;;2.09;100.00
38718;BME280;24468;52.128;9.278;2024-01-15T07:03:07;98840.72;;;1.87;100.00
38718;BME280;24468;52.128;9.278;2024-01-15T07:05:33;98833.25;;;1.97;100.00
38718;BME280;24468;52.128;9.278;2024-01-15T07:07:58;98838.28;;;2.05;100.00
38718;BME280;24468;52.128;9.278;2024-01-15T07:10:24;98837.28;;;2.09;100.00
38718;BME280;24468;52.128;9.278;2024-01-15T07:12:49;98837.31;;;2.07;100.00
38718;BME280;24468;52.128;9.278;2024-01-15T07:15:15;98829.22;;;2.10;100.00
38718;BME280;24468;52.128;9.278;2024-01-15T07:17:41;98836.41;;;1.83;100.00
38718;BME280;24468;52.128;9.278;2024-01-15T07:20:09;98818.06;;;2.00;100.00
38718;BME280;24468;52.128;9.278;2024-01-15T07:22:38;98825.72;;;2.08;100.00
38718;BME280;24468;52.128;9.278;2024-01-15T07:25:04;98822.91;;;2.13;100.00
38718;BME280;24468;52.128;9.278;2024-01-15T07:27:31;98830.50;;;2.23;100.00
38718;BME280;24468;52.128;9.278;2024-01-15T07:29:57;98826.66;;;2.07;100.00
38718;BME280;24468;52.128;9.278;2024-01-15T07:32:23;98835.78;;;2.00;100.00
38718;BME280;24468;52.128;9.278;2024-01-15T07:34:48;98825.63;;;1.88;100.00
38718;BME280;24468;52.128;9.278;2024-01-15T07:37:15;98818.50;;;1.88;100.00
38718;BME280;24468;52.128;9.278;2024-01-15T07:39:40;98830.91;;;1.89;100.00
38718;BME280;24468;52.128;9.278;2024-01-15T07:42:06;98832.56;;;2.15;100.00
38718;BME280;24468;52.128;9.278;2024-01-15T07:44:32;98815.91;;;1.87;100.00
38718;BME280;24468;52.128;9.278;2024-01-15T07:46:58;98843.84;;;1.98;100.00
38718;BME280;24468;52.128;9.278;2024-01-15T07:49:23;98845.63;;;2.21;100.00
38718;BME280;24468;52.128;9.278;2024-01-15T07:51:49;98849.81;;;2.29;100.00
38718;BME280;24468;52.128;9.278;2024-01-15T07:54:14;98863.22;;;2.49;100.00
38718;BME280;24468;52.128;9.278;2024-01-15T07:57:12;98856.97;;;2.27;100.00
38718;BME280;24468;52.128;9.278;2024-01-15T07:59:38;98856.53;;;2.39;100.00
38718;BME280;24468;52.128;9.278;2024-01-15T08:02:04;98867.00;;;2.65;100.00
38718;BME280;24468;52.128;9.278;2024-01-15T08:04:29;98846.91;;;2.58;100.00
38718;BME280;24468;52.128;9.278;2024-01-15T08:06:55;98850.38;;;2.82;100.00
38718;BME280;24468;52.128;9.278;2024-01-15T08:09:22;98868.28;;;2.79;100.00
38718;BME280;24468;52.128;9.278;2024-01-15T08:11:47;98862.81;;;2.82;100.00
38718;BME280;24468;52.128;9.278;2024-01-15T08:14:14;98863.25;;;2.71;100.00
38718;BME280;24468;52.128;9.278;2024-01-15T08:16:40;98868.41;;;2.76;100.00
38718;BME280;24468;52.128;9.278;2024-01-15T08:19:06;98865.00;;;2.94;100.00
38718;BME280;24468;52.128;9.278;2024-01-15T08:21:32;98863.81;;;2.79;100.00
38718;BME280;24468;52.128;9.278;2024-01-15T08:24:02;98887.78;;;3.01;100.00
38718;BME280;24468;52.128;9.278;2024-01-15T08:26:29;98868.38;;;2.99;100.00
38718;BME280;24468;52.128;9.278;2024-01-15T08:28:55;98869.22;;;2.78;100.00
38718;BME280;24468;52.128;9.278;2024-01-15T08:31:20;98865.50;;;3.04;100.00
38718;BME280;24468;52.128;9.278;2024-01-15T08:33:46;98862.91;;;3.02;100.00
38718;BME280;24468;52.128;9.278;2024-01-15T08:36:12;98866.25;;;3.29;100.00
38718;BME280;24468;52.128;9.278;2024-01-15T08:38:38;98858.81;;;2.72;100.00
38718;BME280;24468;52.128;9.278;2024-01-15T08:41:04;98868.53;;;2.95;100.00
38718;BME280;24468;52.128;9.278;2024-01-15T08:43:29;98868.00;;;2.63;100.00
38718;BME280;24468;52.128;9.278;2024-01-15T08:45:56;98872.88;;;2.52;100.00
38718;BME280;24468;52.128;9.278;2024-01-15T08:48:22;98860.25;;;2.57;100.00
38718;BME280;24468;52.128;9.278;2024-01-15T08:50:48;98872.13;;;2.48;100.00
38718;BME280;24468;52.128;9.278;2024-01-15T08:53:14;98867.97;;;2.41;100.00
38718;BME280;24468;52.128;9.278;2024-01-15T08:55:40;98868.00;;;2.63;100.00
38718;BME280;24468;52.128;9.278;2024-01-15T08:58:08;98847.91;;;2.78;100.00
38718;BME280;24468;52.128;9.278;2024-01-15T09:00:33;98853.72;;;2.87;100.00
38718;BME280;24468;52.128;9.278;2024-01-15T09:02:59;98869.34;;;2.75;100.00
38718;BME280;24468;52.128;9.278;2024-01-15T09:05:25;98853.72;;;3.09;100.00
38718;BME280;24468;52.128;9.278;2024-01-15T09:07:50;98851.38;;;3.02;100.00
38718;BME280;24468;52.128;9.278;2024-01-15T09:10:18;98868.53;;;2.73;100.00
38718;BME280;24468;52.128;9.278;2024-01-15T09:12:44;98860.78;;;2.43;100.00
38718;BME280;24468;52.128;9.278;2024-01-15T09:15:10;98835.31;;;2.36;100.00
38718;BME280;24468;52.128;9.278;2024-01-15T09:17:35;98845.91;;;2.61;100.00
38718;BME280;24468;52.128;9.278;2024-01-15T09:20:01;98856.63;;;2.36;100.00
38718;BME280;24468;52.128;9.278;2024-01-15T09:22:26;98862.75;;;2.61;100.00
38718;BME280;24468;52.128;9.278;2024-01-15T09:24:52;98862.09;;;2.55;100.00
38718;BME280;24468;52.128;9.278;2024-01-15T09:27:18;98856.13;;;2.26;100.00
38718;BME280;24468;52.128;9.278;2024-01-15T09:29:43;98857.97;;;2.48;100.00
38718;BME280;24468;52.128;9.278;2024-01-15T09:32:11;98853.63;;;2.21;100.00
38718;BME280;24468;52.128;9.278;2024-01-15T09:34:38;98868.00;;;2.63;100.00
38718;BME280;24468;52.128;9.278;2024-01-15T09:37:04;98865.53;;;2.35;100.00
38718;BME280;24468;52.128;9.278;2024-01-15T09:39:30;98855.56;;;2.41;100.00
38718;BME280;24468;52.128;9.278;2024-01-15T09:41:57;98862.91;;;2.57;100.00
38718;BME280;24468;52.128;9.278;2024-01-15T09:44:23;98859.53;;;2.53;100.00
38718;BME280;24468;52.128;9.278;2024-01-15T09:46:49;98868.78;;;2.43;100.00
38718;BME280;24468;52.128;9.278;2024-01-15T09:49:16;98858.03;;;2.22;100.00
38718;BME280;24468;52.128;9.278;2024-01-15T09:51:44;98855.38;;;2.22;100.00
38718;BME280;24468;52.128;9.278;2024-01-15T09:54:10;98856.13;;;2.26;100.00
38718;BME280;24468;52.128;9.278;2024-01-15T09:56:39;98847.66;;;2.38;100.00
38718;BME280;24468;52.128;9.278;2024-01-15T09:59:04;98864.50;;;2.39;100.00
38718;BME280;24468;52.128;9.278;2024-01-15T10:01:32;98868.16;;;2.36;100.00
38718;BME280;24468;52.128;9.278;2024-01-15T10:03:58;98857.31;;;2.64;100.00
38718;BME280;24468;52.128;9.278;2024-01-15T10:06:27;98859.53;;;2.53;100.00
38718;BME280;24468;52.128;9.278;2024-01-15T10:08:56;98862.19;;;2.53;100.00
38718;BME280;24468;52.128;9.278;2024-01-15T10:11:23;98879.13;;;2.51;100.00
38718;BME280;24468;52.128;9.278;2024-01-15T10:13:49;98863.91;;;3.00;100.00
38718;BME280;24468;52.128;9.278;2024-01-15T10:16:19;98872.63;;;2.81;100.00
38718;BME280;24468;52.128;9.278;2024-01-15T10:18:45;98854.97;;;2.79;100.00
38718;BME280;24468;52.128;9.278;2024-01-15T10:21:10;98877.13;;;2.79;100.00
38718;BME280;24468;52.128;9.278;2024-01-15T10:23:36;98867.53;;;2.75;100.00
38718;BME280;24468;52.128;9.278;2024-01-15T10:26:03;98876.75;;;2.66;100.00
38718;BME280;24468;52.128;9.278;2024-01-15T10:28:30;98842.88;;;2.92;100.00
38718;BME280;24468;52.128;9.278;2024-01-15T10:30:58;98878.38;;;3.15;100.00
38718;BME280;24468;52.128;9.278;2024-01-15T10:33:27;98864.19;;;3.14;100.00
38718;BME280;24468;52.128;9.278;2024-01-15T10:35:57;98863.03;;;2.99;100.00
38718;BME280;24468;52.128;9.278;2024-01-15T10:38:24;98858.88;;;3.14;100.00
38718;BME280;24468;52.128;9.278;2024-01-15T10:40:54;98858.44;;;3.03;100.00
38718;BME280;24468;52.128;9.278;2024-01-15T10:43:21;98847.75;;;3.25;100.00
38718;BME280;24468;52.128;9.278;2024-01-15T10:45:51;98859.47;;;2.77;100.00
38718;BME280;24468;52.128;9.278;2024-01-15T10:48:18;98860.28;;;3.23;100.00
38718;BME280;24468;52.128;9.278;2024-01-15T10:50:45;98868.72;;;3.12;100.00
38718;BME280;24468;52.128;9.278;2024-01-15T10:53:15;98852.13;;;3.05;100.00
38718;BME280;24468;52.128;9.278;2024-01-15T10:55:42;98850.94;;;2.90;100.00
38718;BME280;24468;52.128;9.278;2024-01-15T10:58:09;98852.38;;;2.99;100.00
38718;BME280;24468;52.128;9.278;2024-01-15T11:00:38;98852.16;;;3.04;100.00
38718;BME280;24468;52.128;9.278;2024-01-15T11:03:05;98851.81;;;2.69;100.00
38718;BME280;24468;52.128;9.278;2024-01-15T11:05:38;98867.25;;;3.05;100.00
38718;BME280;24468;52.128;9.278;2024-01-15T11:08:06;98842.38;;;3.04;100.00
38718;BME280;24468;52.128;9.278;2024-01-15T11:10:51;98854.34;;;2.94;100.00
38718;BME280;24468;52.128;9.278;2024-01-15T11:13:22;98842.75;;;3.17;100.00
38718;BME280;24468;52.128;9.278;2024-01-15T11:16:11;98847.47;;;3.10;100.00
38718;BME280;24468;52.128;9.278;2024-01-15T11:19:02;98851.00;;;2.89;100.00
38718;BME280;24468;52.128;9.278;2024-01-15T11:21:28;98852.59;;;2.93;100.00
38718;BME280;24468;52.128;9.278;2024-01-15T11:24:01;98849.50;;;3.04;100.00
38718;BME280;24468;52.128;9.278;2024-01-15T11:28:56;98845.81;;;2.86;100.00
38718;BME280;24468;52.128;9.278;2024-01-15T11:31:30;98844.56;;;3.17;100.00
38718;BME280;24468;52.128;9.278;2024-01-15T11:34:15;98834.13;;;3.32;100.00
38718;BME280;24468;52.128;9.278;2024-01-15T11:42:01;98845.00;;;2.84;100.00
38718;BME280;24468;52.128;9.278;2024-01-15T11:44:28;98871.88;;;3.00;100.00
38718;BME280;24468;52.128;9.278;2024-01-15T11:47:03;98838.25;;;2.97;100.00
38718;BME280;24468;52.128;9.278;2024-01-15T11:50:00;98846.97;;;3.01;100.00
38718;BME280;24468;52.128;9.278;2024-01-15T11:52:38;98832.84;;;2.77;100.00
38718;BME280;24468;52.128;9.278;2024-01-15T11:55:27;98844.50;;;3.18;100.00
38718;BME280;24468;52.128;9.278;2024-01-15T11:57:57;98835.84;;;2.91;100.00
38718;BME280;24468;52.128;9.278;2024-01-15T12:00:25;98831.97;;;2.98;100.00
38718;BME280;24468;52.128;9.278;2024-01-15T12:02:51;98843.31;;;2.59;100.00
38718;BME280;24468;52.128;9.278;2024-01-15T12:05:19;98831.94;;;2.78;100.00
38718;BME280;24468;52.128;9.278;2024-01-15T12:07:48;98807.28;;;2.73;100.00
38718;BME280;24468;52.128;9.278;2024-01-15T12:10:18;98830.50;;;2.91;100.00
38718;BME280;24468;52.128;9.278;2024-01-15T12:13:10;98820.63;;;3.15;100.00
38718;BME280;24468;52.128;9.278;2024-01-15T12:15:36;98816.25;;;2.92;100.00
38718;BME280;24468;52.128;9.278;2024-01-15T12:18:02;98818.41;;;3.04;100.00
38718;BME280;24468;52.128;9.278;2024-01-15T12:20:30;98818.91;;;2.92;100.00
38718;BME280;24468;52.128;9.278;2024-01-15T12:22:56;98819.09;;;2.87;100.00
38718;BME280;24468;52.128;9.278;2024-01-15T12:25:23;98813.13;;;3.25;100.00
38718;BME280;24468;52.128;9.278;2024-01-15T12:27:49;98821.63;;;3.12;100.00
38718;BME280;24468;52.128;9.278;2024-01-15T12:30:15;98815.50;;;3.10;100.00
38718;BME280;24468;52.128;9.278;2024-01-15T12:32:41;98818.59;;;3.00;100.00
38718;BME280;24468;52.128;9.278;2024-01-15T12:35:13;98816.06;;;3.19;100.00
38718;BME280;24468;52.128;9.278;2024-01-15T12:37:39;98839.50;;;2.88;100.00
38718;BME280;24468;52.128;9.278;2024-01-15T12:40:07;98829.06;;;2.82;100.00
38718;BME280;24468;52.128;9.278;2024-01-15T12:42:33;98821.13;;;3.25;100.00
38718;BME280;24468;52.128;9.278;2024-01-15T12:45:00;98812.59;;;2.73;100.00
38718;BME280;24468;52.128;9.278;2024-01-15T12:47:26;98827.59;;;2.97;100.00
38718;BME280;24468;52.128;9.278;2024-01-15T12:49:52;98816.31;;;2.90;100.00
38718;BME280;24468;52.128;9.278;2024-01-15T12:52:21;98810.41;;;3.04;100.00
38718;BME280;24468;52.128;9.278;2024-01-15T12:54:51;98815.81;;;2.81;100.00
38718;BME280;24468;52.128;9.278;2024-01-15T12:57:16;98821.97;;;3.25;100.00
38718;BME280;24468;52.128;9.278;2024-01-15T12:59:44;98831.97;;;2.98;100.00
38718;BME280;24468;52.128;9.278;2024-01-15T13:02:14;98830.19;;;2.77;100.00
38718;BME280;24468;52.128;9.278;2024-01-15T13:04:40;98824.84;;;2.77;100.00
38718;BME280;24468;52.128;9.278;2024-01-15T13:07:06;98824.69;;;2.81;100.00